Time;durP1;ratioP1;P1;durP2;ratioP2;P2;SDS_P1;SDS_P2;PMS_P1;PMS_P2;Temp;Humidity;BMP_temperature;BMP_pressure;BME280_temperature;BME280_humidity;BME280_pressure;Samples;Min_cycle;Max_cycle;Signal;HPM_P1;HPM_P2
2022/10/24 00:00:28;;;;;;;4.95;4.55;;;12.70;99.90;;;;;;5109185;28;20543;-74
2022/10/24 00:02:54;;;;;;;6.28;4.63;;;12.60;99.90;;;;;;5102390;28;20179;-74
2022/10/24 00:05:20;;;;;;;5.00;4.60;;;12.70;99.90;;;;;;5101714;28;20202;-74
2022/10/24 00:07:48;;;;;;;5.75;5.25;;;12.70;99.90;;;;;;5112287;28;20178;-73
2022/10/24 00:10:14;;;;;;;5.80;5.28;;;12.80;99.90;;;;;;5106546;28;20178;-74
2022/10/24 00:12:40;;;;;;;5.50;5.00;;;12.70;99.90;;;;;;5101598;28;20216;-75
2022/10/24 00:15:06;;;;;;;5.75;4.60;;;12.70;99.90;;;;;;5110199;28;20231;-74
2022/10/24 00:17:32;;;;;;;6.00;5.50;;;12.70;99.90;;;;;;5102883;28;20200;-74
2022/10/24 00:19:59;;;;;;;7.35;5.20;;;12.70;99.90;;;;;;5102839;28;20173;-74
2022/10/24 00:22:25;;;;;;;6.45;5.28;;;12.70;99.90;;;;;;5103463;28;20778;-74
2022/10/24 00:24:51;;;;;;;6.63;5.47;;;12.70;99.90;;;;;;5112411;28;20193;-73
2022/10/24 00:27:17;;;;;;;5.50;5.05;;;12.70;99.90;;;;;;5101848;28;20178;-73
2022/10/24 00:29:43;;;;;;;6.35;5.75;;;12.70;99.90;;;;;;5103938;28;20705;-73
2022/10/24 00:32:09;;;;;;;6.72;5.25;;;12.70;99.90;;;;;;5108817;28;20198;-75
2022/10/24 00:34:34;;;;;;;5.82;5.43;;;12.60;99.90;;;;;;5098839;28;20542;-74
2022/10/24 00:37:01;;;;;;;6.03;5.43;;;12.60;99.90;;;;;;5111933;28;20219;-75
2022/10/24 00:39:27;;;;;;;5.80;5.30;;;12.70;99.90;;;;;;5103174;28;20171;-75
2022/10/24 00:41:55;;;;;;;6.40;5.80;;;12.70;99.90;;;;;;5111850;28;20256;-75
2022/10/24 00:44:22;;;;;;;7.38;6.45;;;12.60;99.90;;;;;;5097603;28;20233;-75
2022/10/24 00:47:23;;;;;;;7.35;6.20;;;12.60;99.90;;;;;;5102935;28;20288;-73
2022/10/24 00:49:53;;;;;;;6.75;5.43;;;12.60;99.90;;;;;;5078529;28;20188;-75
2022/10/24 00:52:24;;;;;;;9.70;6.30;;;12.60;99.90;;;;;;5101273;28;20282;-75
2022/10/24 00:54:52;;;;;;;8.50;5.82;;;12.60;99.90;;;;;;5107550;28;20564;-74
2022/10/24 00:57:34;;;;;;;9.70;6.28;;;12.60;99.90;;;;;;5092083;28;20927;-75
2022/10/24 01:00:06;;;;;;;5.85;4.95;;;12.60;99.90;;;;;;5102676;28;20181;-75
2022/10/24 01:02:32;;;;;;;6.53;5.25;;;12.70;99.90;;;;;;5098931;28;20292;-75
2022/10/24 01:04:58;;;;;;;5.78;5.18;;;12.70;99.90;;;;;;5102016;28;20241;-77
2022/10/24 01:07:53;;;;;;;8.63;6.32;;;12.70;99.90;;;;;;5096669;28;20213;-75
2022/10/24 01:10:43;;;;;;;7.00;5.18;;;12.70;99.90;;;;;;5095818;28;20793;-75
2022/10/24 01:13:21;;;;;;;7.25;4.82;;;12.70;99.90;;;;;;5080897;28;20206;-75
2022/10/24 01:16:01;;;;;;;6.13;4.82;;;12.80;99.90;;;;;;5085942;28;20684;-73
2022/10/24 01:18:42;;;;;;;6.97;4.70;;;12.90;99.90;;;;;;5087265;28;20616;-75
2022/10/24 01:21:49;;;;;;;6.57;4.97;;;12.90;99.90;;;;;;5088964;28;20521;-75
2022/10/24 01:24:35;;;;;;;6.63;4.90;;;12.90;99.90;;;;;;5065444;28;20179;-76
2022/10/24 01:27:12;;;;;;;5.32;4.82;;;12.90;99.90;;;;;;5084217;28;20182;-77
2022/10/24 01:29:57;;;;;;;5.30;4.80;;;12.90;99.90;;;;;;5084756;28;20178;-75
2022/10/24 01:32:59;;;;;;;5.53;3.97;;;12.90;99.90;;;;;;5089647;28;20231;-75
2022/10/24 01:35:35;;;;;;;5.05;4.65;;;12.90;99.90;;;;;;5078640;28;20202;-75
2022/10/24 01:38:15;;;;;;;5.30;4.80;;;12.90;99.90;;;;;;5086551;28;20253;-74
2022/10/24 01:40:49;;;;;;;5.63;4.25;;;12.80;99.90;;;;;;5089944;28;20167;-74
2022/10/24 01:43:19;;;;;;;4.32;3.92;;;12.80;99.90;;;;;;5089241;28;20665;-75
2022/10/24 01:45:48;;;;;;;5.90;4.00;;;12.90;99.90;;;;;;5081098;28;20222;-75
2022/10/24 01:48:19;;;;;;;5.07;4.57;;;12.90;99.90;;;;;;5086494;28;20207;-75
2022/10/24 01:50:48;;;;;;;4.72;4.22;;;12.90;99.90;;;;;;5089282;28;20177;-75
2022/10/24 01:53:14;;;;;;;10.63;4.97;;;12.90;99.90;;;;;;5100880;28;20197;-75
2022/10/24 01:55:42;;;;;;;6.13;4.50;;;12.90;99.90;;;;;;5100158;28;20206;-75
2022/10/24 01:58:07;;;;;;;4.82;4.40;;;13.00;99.90;;;;;;5105791;28;20170;-74
2022/10/24 02:00:33;;;;;;;6.18;4.43;;;13.00;99.90;;;;;;5109549;28;20659;-75
2022/10/24 02:03:18;;;;;;;7.07;4.45;;;13.00;99.90;;;;;;5106266;28;20188;-75
2022/10/24 02:05:50;;;;;;;7.28;4.80;;;12.90;99.90;;;;;;5105586;28;20220;-75
2022/10/24 02:08:20;;;;;;;5.20;4.32;;;12.90;99.90;;;;;;5092741;28;20183;-75
2022/10/24 02:10:51;;;;;;;7.45;5.28;;;12.90;99.90;;;;;;5102659;28;20538;-75
2022/10/24 02:13:41;;;;;;;9.32;4.68;;;12.90;99.90;;;;;;5107449;28;20208;-75
2022/10/24 02:16:07;;;;;;;6.57;4.10;;;12.80;99.90;;;;;;5094935;28;20209;-74
2022/10/24 02:18:34;;;;;;;6.93;4.60;;;12.90;99.90;;;;;;5093947;28;20181;-75
2022/10/24 02:21:15;;;;;;;5.78;4.35;;;12.90;99.90;;;;;;5108695;28;20555;-74
2022/10/24 02:23:55;;;;;;;7.35;4.63;;;12.90;99.90;;;;;;5088611;28;20262;-74
2022/10/24 02:27:04;;;;;;;7.68;5.13;;;12.90;99.90;;;;;;5091230;28;20197;-74
2022/10/24 02:29:41;;;;;;;5.00;4.50;;;12.90;99.90;;;;;;5089089;28;20214;-74
2022/10/24 02:32:12;;;;;;;4.65;4.25;;;13.00;99.90;;;;;;5099636;28;20199;-74
2022/10/24 02:34:41;;;;;;;7.13;4.40;;;13.00;99.90;;;;;;5093867;28;20194;-75
2022/10/24 02:37:08;;;;;;;4.78;4.28;;;13.00;99.90;;;;;;5110147;27;20258;-77
2022/10/24 02:39:35;;;;;;;6.35;4.75;;;13.00;99.90;;;;;;5098197;28;20187;-75
2022/10/24 02:42:03;;;;;;;5.43;4.47;;;13.00;99.90;;;;;;5092169;28;20194;-77
2022/10/24 02:44:30;;;;;;;4.85;4.30;;;13.00;99.90;;;;;;5100878;28;20185;-75
2022/10/24 02:46:58;;;;;;;8.43;4.30;;;13.10;99.90;;;;;;5095816;28;20205;-74
2022/10/24 02:49:24;;;;;;;4.47;4.07;;;13.00;99.90;;;;;;5103749;28;20178;-74
2022/10/24 02:51:51;;;;;;;6.00;4.18;;;13.00;99.90;;;;;;5083546;28;20213;-74
2022/10/24 02:54:17;;;;;;;6.65;4.78;;;13.10;99.90;;;;;;5082396;28;20183;-74
2022/10/24 02:56:53;;;;;;;6.38;4.82;;;13.10;99.90;;;;;;5088757;28;20228;-74
2022/10/24 02:59:19;;;;;;;8.25;4.15;;;13.10;99.90;;;;;;5081602;28;20174;-73
2022/10/24 03:01:44;;;;;;;6.95;4.63;;;13.10;99.90;;;;;;5089323;28;20927;-74
2022/10/24 03:04:10;;;;;;;6.40;4.45;;;13.10;99.90;;;;;;5095002;28;20183;-74
2022/10/24 03:06:36;;;;;;;7.80;5.32;;;13.10;99.90;;;;;;5087792;28;20358;-74
2022/10/24 03:09:02;;;;;;;10.10;5.43;;;13.10;99.90;;;;;;5083151;28;20175;-74
2022/10/24 03:11:28;;;;;;;6.55;5.05;;;13.00;99.90;;;;;;5094903;28;20237;-75
2022/10/24 03:13:53;;;;;;;6.57;5.75;;;13.00;99.90;;;;;;5095713;28;20181;-74
2022/10/24 03:16:19;;;;;;;11.55;6.28;;;13.00;99.90;;;;;;5097440;28;20191;-74
2022/10/24 03:18:44;;;;;;;8.95;6.70;;;13.00;99.90;;;;;;5090964;28;20182;-74
2022/10/24 03:21:10;;;;;;;8.13;6.75;;;12.90;99.90;;;;;;5089000;28;20521;-76
2022/10/24 03:23:35;;;;;;;8.50;7.25;;;12.90;99.90;;;;;;5089181;28;20179;-74
2022/10/24 03:26:01;;;;;;;8.82;6.97;;;12.80;99.90;;;;;;5092690;28;20217;-75
2022/10/24 03:28:27;;;;;;;8.93;6.97;;;12.90;99.90;;;;;;5092958;28;20565;-74
2022/10/24 03:30:52;;;;;;;11.63;8.60;;;12.90;99.90;;;;;;5088887;28;20541;-75
2022/10/24 03:33:19;;;;;;;13.05;7.97;;;12.80;99.90;;;;;;5094000;28;20235;-74
2022/10/24 03:35:44;;;;;;;10.00;8.10;;;12.90;99.90;;;;;;5089684;28;20214;-75
2022/10/24 03:38:10;;;;;;;9.25;7.40;;;12.90;99.90;;;;;;5092998;28;20645;-74
2022/10/24 03:40:36;;;;;;;13.25;8.75;;;13.00;99.90;;;;;;5099220;28;20188;-74
2022/10/24 03:43:03;;;;;;;11.43;8.95;;;12.90;99.90;;;;;;5093719;28;20206;-74
2022/10/24 03:45:28;;;;;;;10.35;7.80;;;12.90;99.90;;;;;;5102345;28;20275;-74
2022/10/24 03:47:54;;;;;;;9.25;7.72;;;12.90;99.90;;;;;;5096230;28;20701;-74
2022/10/24 03:50:19;;;;;;;12.38;8.77;;;12.90;99.90;;;;;;5093809;28;20273;-74
2022/10/24 03:52:45;;;;;;;9.35;7.38;;;12.90;99.90;;;;;;5081183;28;20206;-74
2022/10/24 03:55:11;;;;;;;10.38;8.00;;;12.90;99.90;;;;;;5089425;28;20285;-74
2022/10/24 03:57:37;;;;;;;10.60;7.63;;;12.90;99.90;;;;;;5097832;28;20189;-75
2022/10/24 04:00:04;;;;;;;9.88;8.05;;;12.90;99.90;;;;;;5096796;28;20191;-75
2022/10/24 04:02:30;;;;;;;11.75;7.88;;;13.00;99.90;;;;;;5100406;28;20181;-75
2022/10/24 04:04:55;;;;;;;8.95;7.60;;;13.00;99.90;;;;;;5091066;28;20749;-76
2022/10/24 04:07:21;;;;;;;10.85;7.65;;;13.00;99.90;;;;;;5096807;28;20220;-74
2022/10/24 04:09:47;;;;;;;8.93;7.93;;;13.00;99.90;;;;;;5080851;28;20818;-74
2022/10/24 04:12:13;;;;;;;8.40;7.57;;;13.10;99.90;;;;;;5077120;28;20206;-74
2022/10/24 04:14:38;;;;;;;9.57;7.90;;;13.00;99.90;;;;;;5082783;28;20205;-74
2022/10/24 04:17:04;;;;;;;9.05;7.57;;;13.00;99.90;;;;;;5088692;28;20223;-74
2022/10/24 04:19:30;;;;;;;12.75;10.13;;;13.00;99.90;;;;;;5092017;28;20185;-75
2022/10/24 04:21:55;;;;;;;12.80;9.07;;;12.90;99.90;;;;;;5087071;28;20195;-74
2022/10/24 04:24:21;;;;;;;13.38;9.07;;;12.90;99.90;;;;;;5084677;28;20289;-75
2022/10/24 04:26:47;;;;;;;11.32;9.57;;;12.90;99.90;;;;;;5080962;28;20205;-74
2022/10/24 04:29:12;;;;;;;11.75;9.80;;;12.90;99.90;;;;;;5084098;28;20185;-74
2022/10/24 04:31:38;;;;;;;11.80;9.00;;;12.90;99.90;;;;;;5088367;28;20220;-74
2022/10/24 04:34:04;;;;;;;15.07;9.57;;;12.90;99.90;;;;;;5099148;28;20541;-74
2022/10/24 04:36:30;;;;;;;15.02;11.27;;;13.10;99.90;;;;;;5092974;28;20716;-75
2022/10/24 04:38:55;;;;;;;13.63;11.05;;;13.00;99.90;;;;;;5104073;28;20173;-75
2022/10/24 04:41:21;;;;;;;13.65;9.95;;;12.90;99.90;;;;;;5091676;28;20183;-75
2022/10/24 04:43:47;;;;;;;10.57;9.48;;;13.00;99.90;;;;;;5097686;28;20240;-74
2022/10/24 04:46:12;;;;;;;13.10;10.48;;;13.00;99.90;;;;;;5092317;28;20214;-75
2022/10/24 04:48:38;;;;;;;12.93;10.65;;;13.10;99.90;;;;;;5090177;28;20278;-75
2022/10/24 04:51:04;;;;;;;12.95;11.13;;;13.00;99.90;;;;;;5097750;28;20172;-75
2022/10/24 04:53:30;;;;;;;13.05;10.73;;;13.00;99.90;;;;;;5093413;28;20198;-75
2022/10/24 04:55:55;;;;;;;14.75;11.52;;;13.00;99.90;;;;;;5103846;28;20197;-75
2022/10/24 04:58:21;;;;;;;18.60;12.52;;;12.90;99.90;;;;;;5097639;28;20228;-74
2022/10/24 05:00:49;;;;;;;17.08;12.63;;;12.90;99.90;;;;;;5090102;28;20182;-74
2022/10/24 05:03:16;;;;;;;15.05;11.63;;;12.90;99.90;;;;;;5091610;28;20211;-74
2022/10/24 05:05:42;;;;;;;13.07;11.55;;;12.90;99.90;;;;;;5090032;28;20201;-75
2022/10/24 05:08:07;;;;;;;14.60;11.27;;;12.90;99.90;;;;;;5096785;28;20661;-74
2022/10/24 05:10:33;;;;;;;13.10;10.65;;;12.90;99.90;;;;;;5091765;28;20233;-74
2022/10/24 05:12:59;;;;;;;12.23;10.48;;;13.00;99.90;;;;;;5104297;28;20206;-75
2022/10/24 05:15:24;;;;;;;13.32;9.57;;;13.00;99.90;;;;;;5089052;28;20194;-74
2022/10/24 05:17:50;;;;;;;16.40;11.27;;;13.00;99.90;;;;;;5085878;28;20652;-75
2022/10/24 05:20:16;;;;;;;14.93;9.93;;;13.20;99.90;;;;;;5093983;28;20290;-75
2022/10/24 05:22:41;;;;;;;13.68;10.07;;;13.20;99.90;;;;;;5088583;28;20221;-75
2022/10/24 05:25:07;;;;;;;16.52;10.13;;;13.10;99.90;;;;;;5088352;28;20890;-74
2022/10/24 05:27:33;;;;;;;12.52;10.60;;;13.00;99.90;;;;;;5095074;28;20174;-74
2022/10/24 05:29:59;;;;;;;15.02;10.50;;;13.00;99.90;;;;;;5094423;28;20563;-75
2022/10/24 05:32:24;;;;;;;11.88;10.13;;;12.90;99.90;;;;;;5087726;28;20195;-75
2022/10/24 05:34:50;;;;;;;16.33;10.88;;;13.00;99.90;;;;;;5088469;28;20229;-76
2022/10/24 05:37:17;;;;;;;13.77;10.68;;;13.00;99.90;;;;;;5082629;28;20186;-75
2022/10/24 05:39:42;;;;;;;15.43;10.82;;;13.00;99.90;;;;;;5084312;28;20230;-77
2022/10/24 05:42:09;;;;;;;14.25;10.70;;;13.00;99.90;;;;;;5078363;28;20218;-77
2022/10/24 05:44:36;;;;;;;14.45;10.52;;;12.90;99.90;;;;;;5079185;28;20218;-76
2022/10/24 05:47:01;;;;;;;15.93;10.13;;;12.90;99.90;;;;;;5080826;28;20183;-76
2022/10/24 05:49:27;;;;;;;14.57;10.45;;;12.90;99.90;;;;;;5083349;28;20541;-77
2022/10/24 05:51:53;;;;;;;12.65;10.65;;;12.90;99.90;;;;;;5079883;28;20194;-75
2022/10/24 05:54:18;;;;;;;13.85;10.60;;;12.90;99.90;;;;;;5082198;28;20191;-76
2022/10/24 05:56:44;;;;;;;12.45;10.05;;;13.00;99.90;;;;;;5081533;28;20192;-75
2022/10/24 05:59:10;;;;;;;13.82;10.23;;;13.00;99.90;;;;;;5086235;28;20285;-75
2022/10/24 06:01:35;;;;;;;10.95;9.82;;;13.10;99.90;;;;;;5100569;28;20190;-76
2022/10/24 06:04:01;;;;;;;16.10;9.50;;;13.10;99.90;;;;;;5079835;28;20249;-74
2022/10/24 06:06:27;;;;;;;14.85;9.80;;;13.20;99.90;;;;;;5077533;28;20545;-75
2022/10/24 06:08:52;;;;;;;13.23;9.23;;;13.20;99.90;;;;;;5079054;28;20591;-74
2022/10/24 06:11:18;;;;;;;11.20;9.10;;;13.20;99.90;;;;;;5079064;28;20676;-74
2022/10/24 06:13:44;;;;;;;13.15;8.75;;;13.20;99.90;;;;;;5083156;28;20170;-72
2022/10/24 06:16:11;;;;;;;11.27;8.63;;;13.20;99.90;;;;;;5077403;28;20747;-73
2022/10/24 06:18:37;;;;;;;11.38;8.77;;;13.20;99.90;;;;;;5088871;28;20182;-75
2022/10/24 06:21:05;;;;;;;10.70;8.55;;;13.20;99.90;;;;;;5082933;28;20571;-75
2022/10/24 06:23:31;;;;;;;11.60;9.05;;;13.20;99.90;;;;;;5091424;28;20246;-74
2022/10/24 06:25:57;;;;;;;10.50;8.95;;;13.20;99.90;;;;;;5091000;28;20191;-74
2022/10/24 06:28:23;;;;;;;7.78;7.05;;;13.20;99.90;;;;;;5087866;28;20253;-75
2022/10/24 06:30:50;;;;;;;10.75;8.75;;;13.20;99.90;;;;;;5089755;28;20215;-75
2022/10/24 06:33:17;;;;;;;15.20;9.00;;;13.30;99.90;;;;;;5087306;28;20202;-76
2022/10/24 06:35:42;;;;;;;12.02;9.35;;;13.20;99.90;;;;;;5095324;28;20197;-75
2022/10/24 06:38:08;;;;;;;10.55;9.45;;;13.20;99.90;;;;;;5094293;28;20533;-75
2022/10/24 06:40:38;;;;;;;15.55;10.38;;;13.20;99.90;;;;;;5088189;28;20175;-76
2022/10/24 06:43:04;;;;;;;13.40;10.68;;;13.20;99.90;;;;;;5091535;28;20202;-77
2022/10/24 06:45:30;;;;;;;13.88;8.95;;;13.20;99.90;;;;;;5090628;28;20218;-77
2022/10/24 06:47:55;;;;;;;9.88;8.77;;;13.20;99.90;;;;;;5093326;28;20211;-76
2022/10/24 06:50:21;;;;;;;11.40;8.90;;;13.20;99.90;;;;;;5081096;28;20679;-75
2022/10/24 06:52:47;;;;;;;9.77;8.80;;;13.20;99.90;;;;;;5091048;28;20207;-74
2022/10/24 06:55:23;;;;;;;;;;;;;;;;;;;;;
2022/10/24 06:58:01;;;;;;;10.60;9.30;;;13.30;99.90;;;;;;5097448;28;20194;-81
2022/10/24 07:00:36;;;;;;;9.52;8.57;;;13.20;99.90;;;;;;5097046;28;20238;-81
2022/10/24 07:03:37;;;;;;;10.77;8.68;;;13.30;99.90;;;;;;5112683;28;20178;-80
2022/10/24 07:06:29;;;;;;;11.02;8.77;;;13.40;99.90;;;;;;5093805;28;20238;-81
2022/10/24 07:09:05;;;;;;;10.88;8.93;;;13.40;99.90;;;;;;5096004;28;20248;-81
2022/10/24 07:11:33;;;;;;;10.10;8.30;;;13.40;99.90;;;;;;5102462;28;20185;-82
2022/10/24 07:14:01;;;;;;;9.02;8.13;;;13.50;99.90;;;;;;5096965;28;20310;-81
2022/10/24 07:16:27;;;;;;;11.82;9.02;;;13.50;99.90;;;;;;5083269;28;20261;-76
2022/10/24 07:18:53;;;;;;;12.95;9.43;;;13.60;99.90;;;;;;5090318;28;20179;-75
2022/10/24 07:21:24;;;;;;;9.50;8.52;;;13.60;99.90;;;;;;5081065;28;20178;-75
2022/10/24 07:23:51;;;;;;;8.32;7.40;;;13.60;99.90;;;;;;5080209;28;20187;-74
2022/10/24 07:26:18;;;;;;;10.30;7.78;;;13.60;99.90;;;;;;5078957;28;20246;-74
2022/10/24 07:28:46;;;;;;;8.85;7.70;;;13.70;99.90;;;;;;5079092;28;20259;-74
2022/10/24 07:31:16;;;;;;;11.20;8.38;;;13.70;99.90;;;;;;5077602;28;20170;-74
2022/10/24 07:33:42;;;;;;;9.35;7.57;;;13.70;99.90;;;;;;5078387;28;20199;-75
2022/10/24 07:36:08;;;;;;;10.77;8.35;;;13.70;99.90;;;;;;5077436;28;20199;-75
2022/10/24 07:38:33;;;;;;;8.70;7.82;;;13.80;99.90;;;;;;5077071;28;20845;-76
2022/10/24 07:41:05;;;;;;;10.25;8.20;;;13.70;99.90;;;;;;5083184;28;20545;-75
2022/10/24 07:43:34;;;;;;;9.23;8.32;;;13.70;99.90;;;;;;5080496;28;20174;-75
2022/10/24 07:45:59;;;;;;;8.82;7.90;;;13.70;99.90;;;;;;5078609;28;20998;-76
2022/10/24 07:48:25;;;;;;;10.45;8.38;;;13.70;99.90;;;;;;5083312;28;20182;-74
2022/10/24 07:50:51;;;;;;;9.10;7.95;;;13.80;99.90;;;;;;5087027;28;20182;-73
2022/10/24 07:53:16;;;;;;;13.75;8.77;;;13.90;99.90;;;;;;5089002;28;20203;-73
2022/10/24 07:55:43;;;;;;;11.15;9.40;;;13.90;99.90;;;;;;5075697;28;20565;-74
2022/10/24 07:58:10;;;;;;;14.88;9.52;;;13.80;99.90;;;;;;5076056;28;20191;-74
2022/10/24 08:00:36;;;;;;;11.13;9.13;;;13.80;99.90;;;;;;5075805;28;20263;-74
2022/10/24 08:03:02;;;;;;;12.90;9.10;;;13.70;99.90;;;;;;5075419;28;20261;-73
2022/10/24 08:05:28;;;;;;;10.88;9.80;;;13.80;99.90;;;;;;5064642;28;20206;-77
2022/10/24 08:07:54;;;;;;;12.85;9.85;;;13.80;99.90;;;;;;5082185;28;20186;-77
2022/10/24 08:10:20;;;;;;;15.00;10.23;;;13.80;99.90;;;;;;5078919;28;20180;-80
2022/10/24 08:12:46;;;;;;;13.75;10.60;;;13.70;99.90;;;;;;5091530;28;20202;-79
2022/10/24 08:15:11;;;;;;;16.48;11.25;;;13.70;99.90;;;;;;5072211;28;20203;-74
2022/10/24 08:17:37;;;;;;;12.48;11.02;;;13.70;99.90;;;;;;5083739;28;20184;-73
2022/10/24 08:20:07;;;;;;;16.05;11.77;;;13.60;99.90;;;;;;5077576;28;20179;-76
2022/10/24 08:22:33;;;;;;;14.02;11.40;;;13.60;99.90;;;;;;5070215;28;20183;-77
2022/10/24 08:25:05;;;;;;;13.70;9.98;;;13.70;99.90;;;;;;5084381;28;20202;-76
2022/10/24 08:27:31;;;;;;;11.43;10.23;;;13.80;99.90;;;;;;5079798;28;20321;-76
2022/10/24 08:29:56;;;;;;;11.68;10.48;;;14.00;99.90;;;;;;5079020;28;20175;-76
2022/10/24 08:32:22;;;;;;;12.73;10.70;;;14.10;99.90;;;;;;5068776;28;20213;-73
2022/10/24 08:34:48;;;;;;;12.65;10.88;;;14.10;99.90;;;;;;5072399;28;20192;-73
2022/10/24 08:37:13;;;;;;;9.88;8.88;;;14.10;99.90;;;;;;5062189;28;20186;-74
2022/10/24 08:39:39;;;;;;;11.25;10.15;;;14.20;99.90;;;;;;5079689;28;20556;-73
2022/10/24 08:42:10;;;;;;;9.27;8.07;;;14.30;99.90;;;;;;5066841;28;20179;-76
2022/10/24 08:44:40;;;;;;;10.52;9.15;;;14.30;99.90;;;;;;5072754;28;20207;-76
2022/10/24 08:47:11;;;;;;;12.18;9.35;;;14.50;99.90;;;;;;5075780;28;20228;-77
2022/10/24 08:49:44;;;;;;;9.43;8.35;;;14.60;99.90;;;;;;5070230;28;20653;-76
2022/10/24 08:52:28;;;;;;;11.52;8.95;;;14.70;99.90;;;;;;5069793;28;20290;-76
2022/10/24 08:54:58;;;;;;;9.20;7.97;;;14.90;99.90;;;;;;5073051;28;20759;-75
2022/10/24 08:57:30;;;;;;;9.60;8.52;;;15.00;99.90;;;;;;5078407;28;20550;-75
2022/10/24 09:00:00;;;;;;;8.02;7.32;;;15.10;99.90;;;;;;5073034;28;20199;-75
2022/10/24 09:02:30;;;;;;;8.60;7.72;;;15.20;99.90;;;;;;5074852;28;20187;-73
2022/10/24 09:05:00;;;;;;;9.57;7.30;;;15.30;99.90;;;;;;5080181;28;20206;-73
2022/10/24 09:07:26;;;;;;;7.97;7.22;;;15.50;99.90;;;;;;5083790;28;20182;-73
2022/10/24 09:10:14;;;;;;;8.20;7.40;;;15.70;99.90;;;;;;5077227;28;20657;-73
2022/10/24 09:12:39;;;;;;;10.80;7.93;;;15.80;99.90;;;;;;5088559;28;20217;-74
2022/10/24 09:15:14;;;;;;;8.55;7.25;;;15.80;99.90;;;;;;5064475;28;20192;-75
2022/10/24 09:17:41;;;;;;;9.68;6.88;;;15.80;99.90;;;;;;5083903;28;20210;-76
2022/10/24 09:20:29;;;;;;;10.23;6.57;;;15.80;99.90;;;;;;5083884;28;20171;-79
2022/10/24 09:22:57;;;;;;;9.25;6.93;;;15.90;99.90;;;;;;5072722;28;20543;-76
2022/10/24 09:25:28;;;;;;;7.20;6.43;;;15.80;99.90;;;;;;5056879;28;20211;-75
2022/10/24 09:27:56;;;;;;;7.65;6.95;;;15.90;99.90;;;;;;5090247;28;20671;-75
2022/10/24 09:30:25;;;;;;;8.82;5.95;;;15.80;99.90;;;;;;5076856;28;20262;-75
2022/10/24 09:32:53;;;;;;;7.00;6.30;;;15.80;99.90;;;;;;5076120;28;20195;-75
2022/10/24 09:35:24;;;;;;;11.35;6.82;;;15.70;99.90;;;;;;5074223;28;20200;-75
2022/10/24 09:37:54;;;;;;;9.25;6.65;;;15.60;99.90;;;;;;5081019;28;20191;-75
2022/10/24 09:40:21;;;;;;;7.82;6.45;;;15.50;99.90;;;;;;5073101;28;20168;-75
2022/10/24 09:42:50;;;;;;;7.35;6.65;;;15.50;99.90;;;;;;5062883;28;20186;-75
2022/10/24 09:45:46;;;;;;;6.82;6.22;;;15.60;99.90;;;;;;5067888;28;20740;-75
2022/10/24 09:48:27;;;;;;;6.50;5.90;;;15.70;99.90;;;;;;5061133;28;20238;-74
2022/10/24 09:50:54;;;;;;;6.93;6.22;;;15.80;99.90;;;;;;5081101;28;20694;-75
2022/10/24 09:53:32;;;;;;;7.35;6.05;;;15.80;99.90;;;;;;5059282;28;20216;-75
2022/10/24 09:56:14;;;;;;;7.53;6.80;;;15.60;99.90;;;;;;5071129;28;20684;-75
2022/10/24 09:58:40;;;;;;;7.20;6.20;;;15.50;99.90;;;;;;5065364;28;20187;-74
2022/10/24 10:01:15;;;;;;;7.22;6.53;;;15.50;99.90;;;;;;5064836;28;20191;-74
2022/10/24 10:03:41;;;;;;;6.82;6.22;;;15.40;99.90;;;;;;5073337;28;20178;-74
2022/10/24 10:06:18;;;;;;;9.05;6.60;;;15.40;99.90;;;;;;5074517;28;20244;-75
2022/10/24 10:08:50;;;;;;;9.90;6.75;;;15.20;99.90;;;;;;5073747;28;20229;-73
2022/10/24 10:11:23;;;;;;;10.85;6.60;;;15.00;99.90;;;;;;5077354;28;20198;-73
2022/10/24 10:13:53;;;;;;;7.68;6.88;;;14.90;99.90;;;;;;5063698;28;20207;-73
2022/10/24 10:16:26;;;;;;;9.23;7.53;;;14.70;99.90;;;;;;5076418;28;20207;-73
2022/10/24 10:19:06;;;;;;;12.57;8.18;;;14.70;99.90;;;;;;5060393;28;20240;-73
2022/10/24 10:21:59;;;;;;;9.57;7.57;;;14.80;99.90;;;;;;5059741;28;20233;-73
2022/10/24 10:24:33;;;;;;;8.55;7.53;;;14.80;99.90;;;;;;5059248;28;20179;-73
2022/10/24 10:26:59;;;;;;;11.60;7.22;;;14.90;99.90;;;;;;5060724;28;20227;-73
2022/10/24 10:29:25;;;;;;;11.40;7.25;;;15.00;99.90;;;;;;5070074;28;20638;-75
2022/10/24 10:32:17;;;;;;;8.60;7.63;;;15.00;99.90;;;;;;5059322;28;20565;-73
2022/10/24 10:34:49;;;;;;;9.93;6.90;;;15.00;99.90;;;;;;5060150;28;20302;-75
2022/10/24 10:37:27;;;;;;;11.18;7.82;;;14.80;99.90;;;;;;5063208;28;20176;-75
2022/10/24 10:40:11;;;;;;;10.57;7.05;;;14.70;99.90;;;;;;5061926;28;20238;-75
2022/10/24 10:42:58;;;;;;;8.10;6.80;;;14.70;99.90;;;;;;5061469;28;20182;-75
2022/10/24 10:45:45;;;;;;;10.07;7.38;;;14.60;99.90;;;;;;5055363;28;20767;-74
2022/10/24 10:48:40;;;;;;;9.35;7.25;;;14.50;99.90;;;;;;5057585;28;20179;-76
2022/10/24 10:51:19;;;;;;;9.18;7.35;;;14.50;99.90;;;;;;5056884;28;20180;-75
2022/10/24 10:54:01;;;;;;;9.27;8.30;;;14.40;99.90;;;;;;5058858;28;20212;-76
2022/10/24 10:56:32;;;;;;;10.43;8.20;;;14.30;99.90;;;;;;5063756;28;20619;-79
2022/10/24 10:59:31;;;;;;;10.82;9.10;;;14.30;99.90;;;;;;5062878;28;20651;-77
2022/10/24 11:02:12;;;;;;;8.05;7.30;;;14.20;99.90;;;;;;5058548;28;20669;-76
2022/10/24 11:05:22;;;;;;;9.57;6.85;;;14.30;99.90;;;;;;5059546;28;20260;-75
2022/10/24 11:08:29;;;;;;;9.90;7.63;;;14.30;99.90;;;;;;5076061;28;20176;-77
2022/10/24 11:11:30;;;;;;;9.52;8.23;;;14.40;99.90;;;;;;5056315;28;20183;-76
2022/10/24 11:14:14;;;;;;;10.82;7.38;;;14.40;99.90;;;;;;5072871;28;20204;-77
2022/10/24 11:16:42;;;;;;;9.38;8.05;;;14.40;99.90;;;;;;5064638;28;20846;-81
2022/10/24 11:19:24;;;;;;;9.10;8.10;;;14.50;99.90;;;;;;5064365;28;20175;-79
2022/10/24 11:21:50;;;;;;;9.10;7.82;;;14.50;99.90;;;;;;5081966;28;20185;-78
2022/10/24 11:24:19;;;;;;;8.85;7.90;;;14.60;99.90;;;;;;5071930;28;20187;-79
2022/10/24 11:26:51;;;;;;;8.75;7.53;;;14.60;99.90;;;;;;5065396;28;20270;-79
2022/10/24 11:29:29;;;;;;;10.95;8.10;;;14.60;99.90;;;;;;5070829;28;20218;-78
2022/10/24 11:32:13;;;;;;;8.63;7.78;;;14.60;99.90;;;;;;5066559;28;20215;-79
2022/10/24 11:35:04;;;;;;;9.27;7.53;;;14.60;99.90;;;;;;5058684;28;20195;-78
2022/10/24 11:37:36;;;;;;;11.73;7.93;;;14.60;99.90;;;;;;5063938;28;20171;-77
2022/10/24 11:40:14;;;;;;;9.68;8.05;;;14.60;99.90;;;;;;5068056;28;20216;-78
2022/10/24 11:42:54;;;;;;;8.27;7.47;;;14.60;99.90;;;;;;5071114;28;20184;-77
2022/10/24 11:45:26;;;;;;;10.15;8.07;;;14.50;99.90;;;;;;5064084;28;20226;-77
2022/10/24 11:48:15;;;;;;;9.00;7.03;;;14.50;99.90;;;;;;5058539;28;20192;-77
2022/10/24 11:51:09;;;;;;;8.35;7.55;;;14.60;99.90;;;;;;5051550;28;20245;-77
2022/10/24 11:53:37;;;;;;;10.07;7.63;;;14.60;99.90;;;;;;5073911;28;20214;-77
2022/10/24 11:56:12;;;;;;;8.18;7.15;;;14.60;99.90;;;;;;5060742;28;20195;-77
2022/10/24 11:58:56;;;;;;;9.07;7.95;;;14.50;99.90;;;;;;5063973;28;20179;-75
2022/10/24 12:01:28;;;;;;;7.75;7.05;;;14.60;99.90;;;;;;5058390;28;20179;-74
2022/10/24 12:04:12;;;;;;;9.20;7.05;;;14.70;99.90;;;;;;5064534;28;20310;-74
2022/10/24 12:07:23;;;;;;;8.02;6.32;;;14.60;99.90;;;;;;5059736;28;20721;-74
2022/10/24 12:10:17;;;;;;;9.00;7.03;;;14.70;99.90;;;;;;5055163;28;20713;-74
2022/10/24 12:13:18;;;;;;;10.77;6.75;;;14.60;99.90;;;;;;5059759;28;20200;-74
2022/10/24 12:16:13;;;;;;;9.73;6.97;;;14.60;99.90;;;;;;5057233;28;20200;-74
2022/10/24 12:18:46;;;;;;;9.63;6.90;;;14.70;99.90;;;;;;5060519;28;20214;-74
2022/10/24 12:21:17;;;;;;;7.85;7.07;;;14.70;99.90;;;;;;5054649;28;20176;-74
2022/10/24 12:23:56;;;;;;;6.95;6.30;;;14.70;99.90;;;;;;5054987;28;20187;-74
2022/10/24 12:26:33;;;;;;;8.63;6.93;;;14.70;99.90;;;;;;5054217;28;20204;-74
2022/10/24 12:29:19;;;;;;;8.05;6.47;;;14.60;99.90;;;;;;5054554;28;20179;-74
2022/10/24 12:31:44;;;;;;;8.30;6.72;;;14.70;99.90;;;;;;5056429;28;20195;-76
2022/10/24 12:34:20;;;;;;;8.82;6.38;;;14.60;99.90;;;;;;5063531;28;20179;-76
2022/10/24 12:37:08;;;;;;;7.82;6.20;;;14.70;99.90;;;;;;5058393;28;20459;-77
2022/10/24 12:39:45;;;;;;;6.85;6.22;;;14.80;99.90;;;;;;5054833;28;20764;-76
2022/10/24 12:42:19;;;;;;;7.25;5.97;;;14.90;99.90;;;;;;5056478;28;20187;-76
2022/10/24 12:44:46;;;;;;;6.82;5.93;;;14.80;99.90;;;;;;5056534;28;20223;-76
2022/10/24 12:47:29;;;;;;;9.73;7.20;;;14.80;99.90;;;;;;5055961;28;20198;-76
2022/10/24 12:49:56;;;;;;;8.57;6.53;;;14.70;99.90;;;;;;5054913;28;20175;-76
2022/10/24 12:52:31;;;;;;;7.30;6.60;;;14.70;99.90;;;;;;5061391;28;20266;-76
2022/10/24 12:54:58;;;;;;;8.10;7.30;;;14.80;99.90;;;;;;5056684;28;20285;-76
2022/10/24 12:57:43;;;;;;;9.35;6.82;;;14.90;99.90;;;;;;5058192;28;20176;-77
2022/10/24 13:00:26;;;;;;;7.70;6.85;;;14.70;99.90;;;;;;5057116;28;20638;-77
2022/10/24 13:03:11;;;;;;;8.93;7.65;;;14.70;99.90;;;;;;5055391;28;20562;-77
2022/10/24 13:05:58;;;;;;;7.50;6.78;;;14.70;99.90;;;;;;5060135;28;20770;-76